Time;durP1;ratioP1;P1;durP2;ratioP2;P2;SDS_P1;SDS_P2;PMS_P1;PMS_P2;Temp;Humidity;BMP_temperature;BMP_pressure;BME280_temperature;BME280_humidity;BME280_pressure;Samples;Min_cycle;Max_cycle;Signal;HPM_P1;HPM_P2
2023/10/13 00:01:04;;;;;;;0.57;0.57;;;;;;;19.30;60.78;95614.44;4359006;32;20177;-62
2023/10/13 00:03:31;;;;;;;0.93;0.93;;;;;;;19.30;58.53;95611.75;4358033;32;20215;-62
2023/10/13 00:06:02;;;;;;;3.30;2.00;;;;;;;19.29;58.72;95602.91;4349814;32;20204;-62
2023/10/13 00:08:29;;;;;;;1.10;1.10;;;;;;;19.32;60.51;95607.59;4347813;32;20185;-62
2023/10/13 00:10:59;;;;;;;0.60;0.60;;;;;;;19.23;60.68;95599.66;4357766;32;20228;-63
2023/10/13 00:13:42;;;;;;;7.50;1.73;;;;;;;19.21;59.25;95601.13;4371500;32;20306;-62
2023/10/13 00:16:09;;;;;;;0.60;0.60;;;;;;;19.26;61.08;95602.78;4356678;32;20189;-62
2023/10/13 00:18:41;;;;;;;6.30;1.07;;;;;;;19.23;59.48;95604.25;4357651;32;20184;-62
2023/10/13 00:21:13;;;;;;;1.83;1.70;;;;;;;19.18;61.20;95607.97;4371312;32;20181;-61
2023/10/13 00:23:52;;;;;;;0.60;0.60;;;;;;;19.15;59.51;95614.00;4357408;32;20192;-62
2023/10/13 00:26:30;;;;;;;0.50;0.50;;;;;;;19.23;60.27;95609.63;4357229;32;20181;-62
2023/10/13 00:31:40;;;;;;;2.23;0.83;;;;;;;19.13;58.43;95605.50;4367884;32;20185;-62
2023/10/13 00:34:11;;;;;;;2.73;1.33;;;;;;;19.18;58.78;95602.56;4369102;32;20223;-61
2023/10/13 00:39:28;;;;;;;1.40;1.30;;;;;;;19.13;59.01;95604.72;4376256;32;20192;-63
2023/10/13 00:42:06;;;;;;;2.87;1.37;;;;;;;19.16;61.95;95599.44;4373149;32;20271;-63
2023/10/13 00:44:42;;;;;;;0.80;0.80;;;;;;;19.17;60.69;95605.59;4356919;32;20188;-63
2023/10/13 00:47:16;;;;;;;1.90;1.63;;;;;;;19.21;60.03;95596.53;4355586;32;20237;-62
2023/10/13 00:49:47;;;;;;;4.37;1.33;;;;;;;19.15;61.20;95599.78;4360517;32;20176;-62
2023/10/13 00:52:15;;;;;;;1.53;1.07;;;;;;;19.11;58.51;95596.22;4370956;32;20211;-62
2023/10/13 00:54:45;;;;;;;1.03;1.03;;;;;;;19.10;60.27;95600.81;4370780;32;20176;-62
2023/10/13 00:57:26;;;;;;;1.63;1.17;;;;;;;19.09;60.23;95604.63;4354904;32;20198;-62
2023/10/13 00:59:53;;;;;;;16.97;2.10;;;;;;;19.11;60.44;95599.69;4356916;32;20199;-61
2023/10/13 01:05:04;;;;;;;0.20;0.20;;;;;;;19.11;60.70;95598.91;4360401;32;20176;-62
2023/10/13 01:07:29;;;;;;;1.40;1.30;;;;;;;19.03;58.17;95600.59;4357054;32;20181;-61
2023/10/13 01:09:55;;;;;;;0.97;0.97;;;;;;;18.96;58.59;95610.34;4356517;32;20303;-61
2023/10/13 01:12:23;;;;;;;0.70;0.70;;;;;;;18.97;59.28;95609.25;4357086;32;20181;-61
2023/10/13 01:14:49;;;;;;;1.13;0.90;;;;;;;18.92;63.08;95612.94;4362193;32;20331;-62
2023/10/13 01:17:14;;;;;;;2.33;1.33;;;;;;;18.96;61.39;95613.84;4350451;32;20269;-61
2023/10/13 01:19:42;;;;;;;1.27;1.17;;;;;;;18.86;61.60;95609.72;4366219;32;20168;-62
2023/10/13 01:22:08;;;;;;;4.23;0.97;;;;;;;18.91;62.29;95607.94;4359868;32;20205;-62
2023/10/13 01:24:36;;;;;;;0.70;0.70;;;;;;;18.79;62.32;95608.72;4371964;32;20185;-61
2023/10/13 01:27:16;;;;;;;1.10;1.00;;;;;;;18.85;60.49;95599.31;4356777;32;20212;-62
2023/10/13 01:29:47;;;;;;;0.93;0.93;;;;;;;18.92;62.19;95596.81;4347275;32;20197;-61
2023/10/13 01:32:16;;;;;;;0.53;0.53;;;;;;;18.81;61.33;95593.03;4360158;32;20177;-61
2023/10/13 01:34:46;;;;;;;1.53;1.13;;;;;;;18.79;61.11;95598.75;4370517;32;20236;-61
2023/10/13 01:37:11;;;;;;;1.00;1.00;;;;;;;18.82;61.45;95597.28;4369563;32;20181;-61
2023/10/13 01:39:37;;;;;;;0.97;0.87;;;;;;;18.79;61.51;95593.38;4357132;32;20268;-61
2023/10/13 01:42:03;;;;;;;0.80;0.80;;;;;;;18.71;61.43;95588.87;4358953;32;20188;-61
2023/10/13 01:44:32;;;;;;;0.90;0.77;;;;;;;18.86;62.84;95587.44;4360158;32;20199;-62
2023/10/13 01:46:59;;;;;;;1.33;1.20;;;;;;;18.83;62.27;95588.09;4361640;32;20181;-61
2023/10/13 01:49:25;;;;;;;8.80;0.80;;;;;;;18.64;61.45;95594.06;4349217;32;20232;-61
2023/10/13 01:51:50;;;;;;;1.87;1.10;;;;;;;18.74;62.42;95595.50;4375283;32;20181;-61
2023/10/13 01:54:16;;;;;;;0.83;0.83;;;;;;;18.70;61.26;95600.00;4375826;32;20207;-61
2023/10/13 01:56:44;;;;;;;0.97;0.93;;;;;;;18.72;59.75;95600.44;4361721;32;20185;-62
2023/10/13 01:59:13;;;;;;;0.70;0.70;;;;;;;18.77;61.56;95601.00;4356827;32;20237;-62
2023/10/13 02:01:40;;;;;;;1.10;1.07;;;;;;;18.77;61.22;95597.50;4351783;32;20172;-62
2023/10/13 02:04:06;;;;;;;0.93;0.93;;;;;;;18.69;62.19;95609.19;4361738;32;20223;-60
2023/10/13 02:06:33;;;;;;;3.70;0.90;;;;;;;18.66;62.23;95604.47;4362961;32;20215;-61
2023/10/13 02:09:09;;;;;;;0.50;0.50;;;;;;;18.64;62.89;95609.41;4360921;32;20184;-61
2023/10/13 02:11:37;;;;;;;1.00;1.00;;;;;;;18.66;62.40;95599.09;4356668;32;20199;-61
2023/10/13 02:14:03;;;;;;;0.57;0.57;;;;;;;18.67;62.38;95598.00;4356478;32;20204;-62
2023/10/13 02:16:30;;;;;;;1.43;1.43;;;;;;;18.60;62.37;95603.91;4375324;32;20240;-62
2023/10/13 02:19:03;;;;;;;1.23;0.80;;;;;;;18.64;62.16;95604.03;4374691;32;20181;-62
2023/10/13 02:21:31;;;;;;;1.33;1.10;;;;;;;18.62;61.34;95608.97;4359875;32;20177;-62
2023/10/13 02:24:05;;;;;;;0.87;0.87;;;;;;;18.52;62.97;95605.56;4359002;32;20199;-63
2023/10/13 02:26:31;;;;;;;5.00;1.13;;;;;;;18.54;61.92;95600.63;4375740;32;20185;-62
2023/10/13 02:28:58;;;;;;;1.03;0.97;;;;;;;18.50;61.21;95599.75;4374928;32;20181;-62
2023/10/13 02:31:26;;;;;;;0.87;0.87;;;;;;;18.35;61.79;95599.62;4360775;32;20197;-62
2023/10/13 02:33:53;;;;;;;2.73;1.80;;;;;;;18.48;61.70;95607.38;4351926;32;20236;-62
2023/10/13 02:36:22;;;;;;;3.60;1.13;;;;;;;18.49;62.15;95600.88;4373517;32;20185;-63
2023/10/13 02:38:50;;;;;;;0.83;0.83;;;;;;;18.50;62.69;95602.44;4361872;32;20209;-62
2023/10/13 02:41:28;;;;;;;0.87;0.87;;;;;;;18.43;62.86;95599.53;4374652;32;20185;-62
2023/10/13 02:43:55;;;;;;;0.90;0.90;;;;;;;18.39;63.37;95598.62;4373950;32;20220;-62
2023/10/13 02:46:21;;;;;;;6.20;1.67;;;;;;;18.30;60.71;95606.00;4361322;32;20185;-62
2023/10/13 02:48:52;;;;;;;1.53;1.33;;;;;;;18.43;63.89;95594.16;4361191;32;20180;-62
2023/10/13 02:51:25;;;;;;;0.97;0.97;;;;;;;18.40;62.88;95594.84;4360433;32;20177;-62
2023/10/13 02:53:52;;;;;;;1.30;1.20;;;;;;;18.35;62.90;95594.25;4360775;32;20258;-62
2023/10/13 02:56:20;;;;;;;1.07;1.07;;;;;;;18.38;63.69;95599.75;4372489;32;20181;-62
2023/10/13 02:59:12;;;;;;;0.90;0.90;;;;;;;18.20;61.99;95590.34;4354860;32;20178;-62
2023/10/13 03:01:35;;;;;;;1.33;1.03;;;;;;;18.17;63.64;95593.69;4370081;32;20185;-61
2023/10/13 03:04:03;;;;;;;1.20;0.73;;;;;;;18.19;62.10;95594.16;4373825;32;20195;-62
2023/10/13 03:06:32;;;;;;;1.00;1.00;;;;;;;18.04;61.75;95597.50;4357326;32;20173;-62
2023/10/13 03:09:21;;;;;;;0.60;0.60;;;;;;;18.12;62.36;95586.63;4362263;32;20177;-62
2023/10/13 03:11:49;;;;;;;1.07;1.07;;;;;;;18.08;62.18;95587.66;4358573;32;20180;-62
2023/10/13 03:14:30;;;;;;;1.17;1.07;;;;;;;18.02;61.39;95583.62;4358444;32;20291;-62
2023/10/13 03:17:08;;;;;;;1.10;1.10;;;;;;;18.05;62.97;95583.75;4352267;32;20181;-62
2023/10/13 03:19:36;;;;;;;1.20;1.10;;;;;;;18.01;62.06;95590.09;4358908;32;20221;-62
2023/10/13 03:22:10;;;;;;;0.40;0.37;;;;;;;18.09;62.51;95587.31;4372920;32;20262;-62
2023/10/13 03:24:36;;;;;;;1.23;1.13;;;;;;;18.09;62.16;95583.84;4370038;32;20227;-61
2023/10/13 03:27:09;;;;;;;0.90;0.90;;;;;;;18.08;62.84;95579.59;4360361;32;20290;-62
2023/10/13 03:29:42;;;;;;;0.60;0.60;;;;;;;18.05;62.79;95582.97;4349692;32;20192;-62
2023/10/13 03:32:15;;;;;;;1.10;1.10;;;;;;;18.01;61.73;95585.53;4355875;32;20197;-62
2023/10/13 03:37:38;;;;;;;1.53;1.43;;;;;;;17.99;63.64;95589.66;4371744;32;20260;-62
2023/10/13 03:43:11;;;;;;;0.70;0.70;;;;;;;17.87;62.07;95586.97;4359180;32;20200;-62
2023/10/13 03:45:47;;;;;;;1.00;0.90;;;;;;;17.89;62.56;95584.69;4356703;32;20192;-62
2023/10/13 03:53:35;;;;;;;1.70;1.33;;;;;;;17.67;61.72;95577.81;4372069;32;20236;-62
2023/10/13 03:56:26;;;;;;;1.60;1.50;;;;;;;17.87;63.76;95577.75;4357792;32;20203;-62
2023/10/13 03:59:06;;;;;;;3.03;0.97;;;;;;;17.82;63.39;95574.53;4356943;32;20188;-62
2023/10/13 04:01:45;;;;;;;0.80;0.80;;;;;;;17.83;63.54;95568.81;4371666;32;20181;-62
2023/10/13 04:04:12;;;;;;;0.97;0.97;;;;;;;17.79;62.59;95577.88;4352103;32;20184;-62
2023/10/13 04:06:51;;;;;;;0.60;0.60;;;;;;;17.84;63.97;95583.03;4347793;32;20207;-61
2023/10/13 04:12:19;;;;;;;0.70;0.70;;;;;;;17.78;63.22;95584.34;4370968;32;20184;-62
2023/10/13 04:15:17;;;;;;;0.67;0.63;;;;;;;17.76;63.02;95583.91;4371722;32;20272;-62
2023/10/13 04:17:44;;;;;;;1.17;1.13;;;;;;;17.75;63.22;95574.28;4370244;32;20204;-62
2023/10/13 04:36:21;;;;;;;1.77;1.67;;;;;;;17.63;63.16;95564.28;4368380;32;20260;-62
2023/10/13 04:39:09;;;;;;;1.00;0.90;;;;;;;17.53;64.08;95564.69;4356478;32;20181;-62
2023/10/13 04:41:43;;;;;;;1.50;0.83;;;;;;;17.47;63.79;95557.97;4364405;32;20172;-62
2023/10/13 05:05:53;;;;;;;2.97;1.80;;;;;;;17.33;62.21;95560.16;4370592;32;20188;-62
2023/10/13 05:46:49;;;;;;;1.67;0.93;;;;;;;17.28;62.57;95563.03;4353916;32;20191;-62
2023/10/13 05:51:47;;;;;;;0.77;0.77;;;;;;;17.10;61.85;95571.22;4365000;32;20189;-62
2023/10/13 06:29:57;;;;;;;7.23;1.93;;;;;;;17.12;61.82;95579.72;4369948;32;20223;-62
2023/10/13 06:32:25;;;;;;;0.70;0.70;;;;;;;17.23;61.30;95587.41;4371217;32;20185;-62
2023/10/13 06:38:00;;;;;;;0.87;0.87;;;;;;;17.40;64.09;95581.88;4355099;32;22839;-62
2023/10/13 06:43:11;;;;;;;1.23;1.13;;;;;;;17.42;61.36;95579.66;4370758;32;20192;-62
2023/10/13 06:45:37;;;;;;;4.50;1.27;;;;;;;17.24;57.63;95580.91;4356964;32;20228;-62
2023/10/13 06:48:04;;;;;;;3.00;2.13;;;;;;;17.08;56.28;95584.19;4359020;32;20199;-62
2023/10/13 06:50:38;;;;;;;0.90;0.90;;;;;;;17.23;63.20;95595.44;4358041;32;20203;-62
2023/10/13 06:53:03;;;;;;;1.83;1.20;;;;;;;17.26;61.80;95587.50;4359626;32;20230;-62
2023/10/13 06:55:34;;;;;;;3.70;1.30;;;;;;;17.37;62.49;95587.87;4358815;32;20181;-62
2023/10/13 06:58:00;;;;;;;2.27;1.43;;;;;;;17.45;62.07;95592.41;4358847;32;20229;-62
2023/10/13 07:00:38;;;;;;;2.83;1.07;;;;;;;17.37;57.61;95588.69;4355803;32;20261;-61
2023/10/13 07:03:38;;;;;;;1.03;1.03;;;;;;;17.39;56.97;95589.13;4372461;32;20211;-61
2023/10/13 07:05:59;;;;;;;1.10;1.00;;;;;;;17.33;55.83;95595.81;4368026;32;20193;-61
2023/10/13 07:08:25;;;;;;;0.60;0.60;;;;;;;17.33;55.69;95595.03;4358271;32;20185;-61
2023/10/13 07:11:13;;;;;;;0.70;0.70;;;;;;;17.41;55.53;95589.59;4352053;32;20251;-61
2023/10/13 07:13:39;;;;;;;1.40;1.40;;;;;;;17.38;55.38;95590.25;4356974;32;20223;-61
2023/10/13 07:16:08;;;;;;;0.50;0.50;;;;;;;17.47;55.09;95595.50;4360604;32;20185;-60
2023/10/13 07:18:41;;;;;;;0.57;0.57;;;;;;;17.50;55.09;95592.19;4359507;32;20189;-61
2023/10/13 07:21:11;;;;;;;0.77;0.77;;;;;;;17.54;55.89;95590.41;4356609;32;20235;-60
2023/10/13 07:23:38;;;;;;;1.07;0.90;;;;;;;17.61;55.77;95598.72;4351321;32;20185;-60
2023/10/13 07:26:08;;;;;;;2.87;0.73;;;;;;;17.61;56.20;95598.72;4373397;32;20208;-61
2023/10/13 07:28:43;;;;;;;2.67;1.17;;;;;;;17.68;57.04;95595.50;4355975;32;20189;-61
2023/10/13 07:31:14;;;;;;;1.20;1.10;;;;;;;17.77;57.83;95593.53;4369792;32;20206;-61
2023/10/13 07:33:41;;;;;;;1.17;1.10;;;;;;;17.76;57.51;95592.75;4357919;32;20188;-61
2023/10/13 07:36:27;;;;;;;3.17;1.73;;;;;;;17.86;55.81;95591.53;4355259;32;20348;-60
2023/10/13 07:39:13;;;;;;;2.63;2.53;;;;;;;17.93;55.91;95586.38;4357648;32;20224;-61
2023/10/13 07:41:41;;;;;;;1.93;1.87;;;;;;;18.05;54.90;95585.63;4354938;32;20193;-60
2023/10/13 07:44:07;;;;;;;1.57;1.53;;;;;;;18.05;54.28;95585.63;4356536;32;20224;-60
2023/10/13 07:46:35;;;;;;;1.00;1.00;;;;;;;18.14;54.46;95583.62;4371255;32;20184;-59
2023/10/13 07:49:09;;;;;;;1.70;1.60;;;;;;;18.17;54.11;95577.59;4357802;32;20189;-60
2023/10/13 07:51:44;;;;;;;0.60;0.60;;;;;;;18.21;55.26;95581.19;4354934;32;20227;-60
2023/10/13 07:54:21;;;;;;;1.10;1.10;;;;;;;18.20;54.82;95582.28;4355757;32;20189;-61
2023/10/13 07:56:47;;;;;;;0.80;0.80;;;;;;;18.17;58.23;95578.38;4348685;32;20203;-60
2023/10/13 07:59:13;;;;;;;1.50;1.40;;;;;;;18.30;54.87;95583.72;4351757;32;20205;-60
2023/10/13 08:01:42;;;;;;;0.53;0.53;;;;;;;18.33;55.73;95580.37;4356181;32;20184;-62
2023/10/13 08:04:11;;;;;;;2.17;2.00;;;;;;;18.39;54.44;95576.34;4357845;32;20237;-60
2023/10/13 08:06:37;;;;;;;0.83;0.73;;;;;;;18.39;54.02;95582.50;4371185;32;20210;-61
2023/10/13 08:09:40;;;;;;;1.07;0.90;;;;;;;18.44;54.07;95576.12;4357771;32;20185;-61
2023/10/13 08:11:56;;;;;;;0.47;0.47;;;;;;;18.50;53.58;95567.50;4348454;32;20228;-61
2023/10/13 08:14:33;;;;;;;2.87;1.67;;;;;;;18.58;53.22;95575.78;4371180;32;20226;-60
2023/10/13 08:17:04;;;;;;;1.87;0.67;;;;;;;18.62;53.48;95572.13;4353556;32;20176;-60
2023/10/13 08:19:49;;;;;;;0.67;0.60;;;;;;;18.66;53.18;95577.59;4348681;32;20189;-60
2023/10/13 08:32:43;;;;;;;1.03;1.03;;;;;;;18.92;55.12;95569.12;4371066;32;20189;-61
2023/10/13 08:35:10;;;;;;;1.17;1.17;;;;;;;19.01;53.40;95565.19;4357374;32;20269;-61
2023/10/13 08:37:59;;;;;;;0.50;0.50;;;;;;;19.06;53.91;95566.88;4370687;32;20306;-60
2023/10/13 08:43:12;;;;;;;1.03;0.93;;;;;;;19.17;53.25;95568.72;4349288;32;20173;-61
2023/10/13 08:48:12;;;;;;;0.93;0.83;;;;;;;19.29;53.11;95565.22;4360274;32;20242;-61
2023/10/13 09:04:22;;;;;;;0.73;0.73;;;;;;;19.54;51.03;95563.22;4370263;32;20199;-61
2023/10/13 09:09:35;;;;;;;1.07;1.07;;;;;;;19.67;49.04;95561.25;4364847;32;20181;-61
2023/10/13 09:12:11;;;;;;;2.47;0.63;;;;;;;19.72;48.31;95551.03;4359919;32;20185;-60
2023/10/13 09:14:39;;;;;;;0.83;0.83;;;;;;;19.73;48.70;95555.28;4361800;32;20222;-60
2023/10/13 09:17:08;;;;;;;1.40;0.90;;;;;;;19.82;47.12;95553.19;4354271;32;20186;-61
2023/10/13 09:19:46;;;;;;;0.60;0.60;;;;;;;19.81;48.32;95556.22;4364513;32;20181;-61
2023/10/13 09:22:35;;;;;;;2.20;0.70;;;;;;;19.88;47.34;95551.03;4346646;32;20337;-61
2023/10/13 09:25:02;;;;;;;0.57;0.57;;;;;;;19.87;48.35;95555.63;4369943;32;20173;-60
2023/10/13 09:27:29;;;;;;;0.47;0.47;;;;;;;19.94;48.16;95556.97;4356745;32;20264;-60
2023/10/13 09:32:45;;;;;;;0.50;0.50;;;;;;;20.04;46.76;95546.44;4370229;32;20180;-60
2023/10/13 09:35:16;;;;;;;0.63;0.63;;;;;;;20.06;46.66;95538.78;4362068;32;20231;-61
2023/10/13 09:37:42;;;;;;;2.87;0.70;;;;;;;20.13;45.21;95533.56;4343341;32;20182;-60
2023/10/13 09:40:25;;;;;;;4.53;1.10;;;;;;;20.14;46.46;95529.75;4355591;32;20188;-60
2023/10/13 09:42:52;;;;;;;0.40;0.40;;;;;;;20.24;44.56;95531.12;4346219;32;20176;-60
2023/10/13 09:45:27;;;;;;;1.03;0.83;;;;;;;20.22;47.36;95528.00;4370532;32;20177;-60
2023/10/13 09:47:57;;;;;;;2.63;0.90;;;;;;;20.37;44.03;95532.59;4352515;32;20212;-60
2023/10/13 09:50:26;;;;;;;0.50;0.50;;;;;;;20.38;44.50;95525.28;4359365;32;20174;-60
2023/10/13 09:52:53;;;;;;;0.77;0.30;;;;;;;20.47;44.23;95531.28;4369378;32;20248;-60
2023/10/13 09:55:33;;;;;;;0.30;0.30;;;;;;;20.43;46.28;95525.81;4370788;32;20201;-59
2023/10/13 09:58:10;;;;;;;1.30;0.63;;;;;;;20.49;43.92;95518.25;4356387;32;20204;-60
2023/10/13 10:06:14;;;;;;;3.50;0.90;;;;;;;20.54;44.41;95518.75;4351587;32;20211;-61
2023/10/13 10:08:48;;;;;;;0.90;0.90;;;;;;;20.64;43.32;95511.25;4373238;32;20184;-62
2023/10/13 10:11:25;;;;;;;2.07;1.23;;;;;;;20.60;43.08;95508.47;4373148;32;20199;-60
2023/10/13 10:13:57;;;;;;;2.60;1.13;;;;;;;20.66;42.91;95509.75;4370576;32;20199;-60
2023/10/13 10:16:37;;;;;;;0.97;0.97;;;;;;;20.75;42.78;95504.97;4357694;32;20239;-60
2023/10/13 10:19:02;;;;;;;5.30;1.13;;;;;;;20.73;42.00;95511.84;4359387;32;20173;-61
2023/10/13 10:21:35;;;;;;;0.73;0.73;;;;;;;20.74;43.72;95514.19;4372580;32;20228;-60
2023/10/13 10:24:05;;;;;;;0.93;0.93;;;;;;;20.79;42.22;95516.56;4358602;32;20181;-61
2023/10/13 10:26:31;;;;;;;1.53;0.60;;;;;;;20.83;42.96;95511.25;4364040;32;20200;-61
2023/10/13 10:28:56;;;;;;;0.80;0.80;;;;;;;20.92;40.14;95504.53;4358987;32;20244;-61
2023/10/13 10:31:34;;;;;;;3.00;0.80;;;;;;;20.96;39.58;95498.44;4368818;32;20228;-61
2023/10/13 10:34:11;;;;;;;5.93;0.90;;;;;;;20.96;39.47;95493.03;4359178;32;20300;-61
2023/10/13 10:36:36;;;;;;;1.00;1.00;;;;;;;21.00;41.35;95491.19;4358952;32;20224;-61
2023/10/13 10:39:05;;;;;;;0.83;0.63;;;;;;;20.96;40.75;95496.53;4358477;32;20181;-61
2023/10/13 10:41:40;;;;;;;0.57;0.53;;;;;;;20.96;41.08;95484.94;4359059;32;20186;-61
2023/10/13 10:46:57;;;;;;;0.60;0.60;;;;;;;21.08;36.88;95482.88;4372610;32;20173;-61
2023/10/13 10:49:30;;;;;;;1.73;0.60;;;;;;;21.09;37.60;95476.34;4348240;32;20177;-61
2023/10/13 10:52:01;;;;;;;0.87;0.60;;;;;;;21.13;37.33;95471.81;4358807;32;20197;-61
2023/10/13 10:54:31;;;;;;;0.53;0.53;;;;;;;21.17;40.25;95472.66;4345599;32;20256;-61
2023/10/13 10:57:17;;;;;;;0.70;0.70;;;;;;;21.20;37.83;95465.75;4356214;32;20265;-61
2023/10/13 10:59:43;;;;;;;0.40;0.40;;;;;;;21.21;39.78;95457.31;4356860;32;20244;-61
2023/10/13 11:02:15;;;;;;;0.77;0.77;;;;;;;21.25;37.71;95449.28;4374010;32;20204;-62
2023/10/13 11:04:49;;;;;;;1.53;0.90;;;;;;;21.30;37.22;95450.91;4372576;32;20189;-62
2023/10/13 11:07:21;;;;;;;2.57;0.83;;;;;;;21.31;38.34;95450.56;4371021;32;20214;-62
2023/10/13 11:09:47;;;;;;;2.83;0.83;;;;;;;21.33;37.92;95445.59;4372219;32;20240;-61
2023/10/13 11:12:25;;;;;;;0.80;0.80;;;;;;;21.37;37.10;95434.84;4358774;32;20199;-61
2023/10/13 11:15:21;;;;;;;1.37;0.83;;;;;;;21.39;38.47;95429.88;4354121;32;20198;-61
2023/10/13 11:17:54;;;;;;;2.60;1.43;;;;;;;21.46;37.17;95432.69;4355102;32;20228;-62
2023/10/13 11:20:54;;;;;;;0.67;0.67;;;;;;;21.43;37.27;95422.59;4357427;32;20189;-61
2023/10/13 11:23:13;;;;;;;0.73;0.60;;;;;;;21.44;37.93;95422.25;4367180;32;20208;-61
2023/10/13 11:25:39;;;;;;;1.00;0.93;;;;;;;21.46;38.38;95413.78;4360763;32;20185;-61
2023/10/13 11:28:19;;;;;;;1.43;0.90;;;;;;;21.46;38.09;95419.19;4371840;32;20196;-61
2023/10/13 11:30:49;;;;;;;1.27;0.83;;;;;;;21.48;36.65;95406.13;4356243;32;20188;-61
2023/10/13 11:33:18;;;;;;;0.67;0.67;;;;;;;21.50;37.71;95409.22;4371745;32;20197;-61
2023/10/13 11:38:44;;;;;;;0.57;0.57;;;;;;;21.66;37.47;95401.00;4357195;32;20176;-62
2023/10/13 11:41:12;;;;;;;0.57;0.57;;;;;;;21.58;38.01;95390.09;4357417;32;20307;-61
2023/10/13 11:46:16;;;;;;;0.50;0.50;;;;;;;21.64;38.51;95387.06;4366185;32;20197;-60
2023/10/13 11:48:43;;;;;;;3.10;1.10;;;;;;;21.65;37.44;95383.22;4366716;32;20216;-62
2023/10/13 11:51:26;;;;;;;2.63;0.87;;;;;;;21.73;37.28;95380.28;4365498;32;20181;-61
2023/10/13 11:53:55;;;;;;;0.53;0.40;;;;;;;21.75;39.10;95378.00;4365490;32;20197;-61
2023/10/13 11:56:21;;;;;;;1.20;0.83;;;;;;;21.77;37.56;95375.72;4360906;32;20227;-61
2023/10/13 11:58:47;;;;;;;35.43;1.40;;;;;;;21.77;38.36;95373.03;4357044;32;20228;-61
2023/10/13 12:11:44;;;;;;;0.73;0.73;;;;;;;21.85;37.88;95342.25;4371639;32;20188;-62
2023/10/13 12:14:17;;;;;;;0.83;0.63;;;;;;;21.91;38.18;95342.72;4367422;32;20199;-61
2023/10/13 12:16:50;;;;;;;2.97;1.07;;;;;;;21.89;38.24;95336.91;4371920;32;20255;-61
2023/10/13 12:19:27;;;;;;;0.70;0.70;;;;;;;21.94;38.14;95336.59;4342102;32;20223;-61
2023/10/13 12:21:56;;;;;;;0.40;0.40;;;;;;;21.92;37.51;95333.47;4368674;32;20251;-61
2023/10/13 12:27:18;;;;;;;0.53;0.53;;;;;;;21.75;42.41;95325.91;4369260;32;20204;-61
2023/10/13 12:29:51;;;;;;;0.57;0.57;;;;;;;21.81;37.80;95327.94;4340426;32;20208;-61
2023/10/13 12:32:30;;;;;;;0.93;0.93;;;;;;;21.85;39.18;95317.94;4354697;32;20256;-62
2023/10/13 12:48:56;;;;;;;6.33;1.37;;;;;;;22.22;36.67;95304.56;4369571;32;20203;-59
2023/10/13 12:53:54;;;;;;;0.40;0.40;;;;;;;22.65;34.65;95290.75;4377641;32;20208;-61
2023/10/13 12:56:26;;;;;;;0.30;0.30;;;;;;;22.71;34.15;95289.25;4366482;32;20228;-60
2023/10/13 12:58:52;;;;;;;1.33;1.00;;;;;;;22.51;36.94;95292.13;4356572;32;20254;-60
2023/10/13 13:01:22;;;;;;;0.40;0.40;;;;;;;22.40;35.81;95283.16;4368810;32;20204;-61
2023/10/13 13:03:49;;;;;;;0.77;0.53;;;;;;;22.43;34.77;95277.00;4354937;32;20177;-60
2023/10/13 13:06:17;;;;;;;0.40;0.40;;;;;;;22.36;37.79;95279.62;4356662;32;20184;-60
2023/10/13 13:08:44;;;;;;;1.03;0.90;;;;;;;22.37;36.63;95272.28;4358452;32;20176;-61
2023/10/13 13:11:10;;;;;;;1.07;0.90;;;;;;;22.33;37.71;95272.25;4344785;32;20215;-60
2023/10/13 13:13:36;;;;;;;0.90;0.90;;;;;;;22.32;36.04;95265.28;4356292;32;20189;-60
2023/10/13 13:16:01;;;;;;;1.03;0.97;;;;;;;22.33;35.54;95260.66;4367397;32;20196;-60
2023/10/13 13:18:26;;;;;;;0.93;0.90;;;;;;;22.37;35.50;95264.97;4355515;32;20250;-60
2023/10/13 13:20:55;;;;;;;4.33;1.27;;;;;;;22.29;37.43;95266.00;4356789;32;20181;-60
2023/10/13 13:23:25;;;;;;;0.70;0.70;;;;;;;22.31;36.35;95252.91;4367777;32;20181;-60
2023/10/13 13:25:51;;;;;;;6.93;1.03;;;;;;;22.29;36.20;95247.09;4351283;32;20235;-60
2023/10/13 13:28:17;;;;;;;0.63;0.63;;;;;;;22.27;36.87;95244.75;4353027;32;20272;-60
2023/10/13 13:30:42;;;;;;;1.03;0.93;;;;;;;22.32;37.92;95243.66;4358036;32;20184;-60
2023/10/13 13:33:10;;;;;;;0.47;0.47;;;;;;;22.35;35.81;95242.12;4363614;32;20185;-60
2023/10/13 13:35:37;;;;;;;1.27;1.20;;;;;;;22.48;34.76;95229.91;4345648;32;20213;-60
2023/10/13 13:38:09;;;;;;;1.43;1.33;;;;;;;22.39;37.08;95232.94;4346066;32;24219;-61
2023/10/13 13:40:37;;;;;;;2.23;1.77;;;;;;;22.32;36.24;95223.94;4351186;32;20196;-60
2023/10/13 13:43:03;;;;;;;1.20;1.10;;;;;;;22.38;35.61;95223.25;4354728;32;20272;-61
2023/10/13 13:45:28;;;;;;;1.20;1.10;;;;;;;22.38;36.79;95225.97;4360854;32;20181;-60
2023/10/13 13:47:54;;;;;;;0.53;0.50;;;;;;;22.37;35.47;95216.28;4368223;32;20181;-60
2023/10/13 13:50:28;;;;;;;0.87;0.87;;;;;;;22.34;38.19;95224.34;4369835;32;20212;-61
2023/10/13 13:52:59;;;;;;;0.60;0.60;;;;;;;22.26;36.96;95218.88;4347919;32;20248;-61
2023/10/13 13:55:28;;;;;;;0.53;0.53;;;;;;;22.23;38.02;95216.16;4369000;32;20177;-61
2023/10/13 13:57:58;;;;;;;0.77;0.77;;;;;;;22.23;36.00;95205.34;4345659;32;20201;-60
2023/10/13 14:01:12;;;;;;;0.90;0.90;;;;;;;22.23;36.42;95206.13;4369783;32;20248;-61
2023/10/13 14:03:12;;;;;;;0.60;0.60;;;;;;;22.25;36.73;95194.91;4350928;32;20181;-60
2023/10/13 14:05:45;;;;;;;2.67;0.83;;;;;;;22.27;36.11;95193.41;4365506;32;20181;-61
2023/10/13 14:08:15;;;;;;;0.73;0.73;;;;;;;22.27;36.04;95189.91;4343763;32;20184;-61
2023/10/13 14:11:13;;;;;;;1.23;0.80;;;;;;;22.23;37.41;95186.41;4351105;32;20180;-61
2023/10/13 14:13:49;;;;;;;0.70;0.70;;;;;;;22.21;36.89;95186.00;4367964;32;20177;-61
2023/10/13 14:16:20;;;;;;;4.03;1.37;;;;;;;22.17;37.58;95190.59;4368258;32;20252;-61
2023/10/13 14:18:47;;;;;;;1.20;0.90;;;;;;;22.27;35.68;95184.50;4355519;32;20192;-61
2023/10/13 14:21:19;;;;;;;3.63;1.17;;;;;;;22.25;37.03;95181.41;4370947;32;20212;-61
2023/10/13 14:23:45;;;;;;;0.60;0.60;;;;;;;22.17;37.03;95175.16;4368265;32;20181;-61
2023/10/13 14:26:15;;;;;;;0.40;0.40;;;;;;;22.09;38.64;95176.22;4355545;32;20227;-60
2023/10/13 14:28:51;;;;;;;1.30;1.20;;;;;;;22.06;37.62;95165.38;4356331;32;20226;-61
2023/10/13 14:31:18;;;;;;;0.70;0.70;;;;;;;22.10;37.11;95168.91;4367477;32;20224;-61
2023/10/13 14:33:46;;;;;;;5.57;1.73;;;;;;;21.99;39.61;95168.78;4369273;32;20223;-61
2023/10/13 14:36:11;;;;;;;0.50;0.50;;;;;;;22.30;36.49;95164.84;4370052;32;20241;-61
2023/10/13 14:38:37;;;;;;;0.17;0.17;;;;;;;22.33;36.33;95163.34;4355666;32;20172;-61
2023/10/13 14:41:02;;;;;;;0.27;0.27;;;;;;;22.31;37.36;95166.41;4355704;32;26143;-60
2023/10/13 14:43:28;;;;;;;4.80;1.87;;;;;;;22.22;37.49;95157.84;4355427;32;20223;-61
2023/10/13 14:45:53;;;;;;;4.10;1.00;;;;;;;22.20;36.52;95155.50;4355755;32;20177;-60
2023/10/13 14:48:24;;;;;;;2.10;0.60;;;;;;;22.12;38.35;95153.87;4364592;32;20244;-60
2023/10/13 14:50:49;;;;;;;2.20;0.77;;;;;;;22.28;36.22;95150.91;4355320;32;20193;-60
2023/10/13 14:53:19;;;;;;;0.60;0.60;;;;;;;22.09;36.79;95148.44;4354414;32;20204;-61
2023/10/13 14:55:45;;;;;;;1.10;0.97;;;;;;;22.00;37.63;95140.63;4355074;32;20189;-61
2023/10/13 14:58:15;;;;;;;2.03;1.13;;;;;;;21.88;41.07;95138.91;4352751;32;20204;-60
2023/10/13 15:00:47;;;;;;;0.57;0.57;;;;;;;21.88;37.91;95140.84;4362282;32;20181;-60
2023/10/13 15:03:12;;;;;;;2.03;0.63;;;;;;;21.92;36.44;95137.03;4358837;32;20284;-61
2023/10/13 15:05:38;;;;;;;1.13;1.00;;;;;;;21.91;39.81;95135.47;4372633;32;20185;-60
2023/10/13 15:08:05;;;;;;;0.73;0.73;;;;;;;21.91;36.63;95138.19;4358362;32;20417;-61
2023/10/13 15:10:31;;;;;;;2.13;1.20;;;;;;;21.92;37.20;95134.34;4357703;32;20193;-61
2023/10/13 15:12:59;;;;;;;1.87;0.53;;;;;;;21.99;36.38;95133.66;4358845;32;20220;-60
2023/10/13 15:15:24;;;;;;;0.60;0.40;;;;;;;21.93;38.04;95133.19;4347353;32;20189;-60
2023/10/13 15:17:50;;;;;;;0.87;0.30;;;;;;;21.84;38.00;95140.81;4352434;32;20181;-61
2023/10/13 15:20:15;;;;;;;1.60;1.50;;;;;;;21.79;41.08;95143.84;4354684;32;20185;-60
2023/10/13 15:22:43;;;;;;;0.47;0.47;;;;;;;21.70;40.67;95132.56;4352309;32;20186;-60
2023/10/13 15:25:39;;;;;;;1.00;0.87;;;;;;;21.65;41.41;95135.56;4370647;32;20205;-60
2023/10/13 15:28:02;;;;;;;1.00;1.00;;;;;;;21.58;40.09;95125.50;4365224;32;20215;-60
2023/10/13 15:30:43;;;;;;;0.30;0.30;;;;;;;21.53;43.37;95125.03;4372178;32;20227;-60
2023/10/13 15:33:09;;;;;;;2.67;1.30;;;;;;;21.52;42.19;95115.37;4356447;32;20201;-61